Las Vegas, Nevada
Traffic Map
Current Weather Conditions
Las Vegas, Nevada
Few Clouds
Few Clouds
37°
Feels Like: 37°
Wind Chill: 37° Ceiling: Unl
Heat Index: 37° Visibility: 10mi
Dew Point: -3° Wind: 10mph
Humidity: 8% Direction: 120° (ESE)
Pressure: 29.86in Gusts: 0mph
Raw Report DataKLAS 292156Z 12009KT 090V150 10SM FEW120 37/M03 A2986 RMK AO2 SLP079 T03721033
Traffic Incident Summary
Active as of:
Severity:
Category:
InformationThere was an issue retrieving the traffic information for this location. Please try a different location or try again shortly.
Advertisements
Track Severe Weather on mobile